Southeast Iowa Regional Airport Burlington US
ICAO: KBRL
IATA: BRL
Category: Medium
Scheduled Services: Yes

Elevation: 698 ft
TransAlt. 18000 ft.

Airport Communications:
ASOS:118.025
CHICAGO CNTR:135.6
FORT DODGE RDO:122.65
CTAF/UNICOM:123

KBRL Zoom In..

Runways:

(A) RW 12 length 5351 ft width 100 ft
---- / hdg 119

(B) RW 18 length 6701 ft width 150 ft
---- / hdg 179

(C) RW 30 length 5351 ft width 100 ft
---- / hdg 299

(D) RW 36 length 6701 ft width 150 ft
ILS 108.90 / hdg 359

Location; KBRL
Day. 03 / Time. 01.53 Zulu
* Altimeter: 29.86
* Temperature: 27° c. 80.6°f.
* Wind from: 220° Speed 09 kn.
Dewpoint: 19° c.
Visibility: 10 Statute Miles.
Clouds: Clear (automated report).

KBRL 030153Z AUTO 22009KT 10SM CLR 27/19 A2986 RMK AO2 SLP106 T02670189


Wind From 220°
Speed 09 kn.

 
 
jpsmedia worldairports.se 2020   terms of use